To NAV CANADA Home Page Login to a new session Search on AWWS site Feedback and Comments Disclaimer Vers la page française équivalente Tips FAQ What's new on the site To the Forecasts and Observations / NOTAM section To "File a Flight Plan" website Publications and other links Update of the User's profile FIC Telephone Numbers My Weather Data Folder Route Weather Data Regional Weather Data Local Weather Data To the Forecasts and Observations / NOTAM section
Request Generated 04/30/2016 at 15:01:36 UTC . Weather information available at that time is displayed.

METAR/TAF

MAKKOVIK/NL    

METAR CYFT 301500Z 30019G25KT 3SM -SN OVC008 M01/M04 A3004 RMK NS8
SLP177=
SPECI CYFT 301450Z 31018G24KT 3SM -SN OVC008 M01/M04 A3003 RMK NS8
SLP176=
METAR CYFT 301400Z 31014G19KT 1 1/2SM -SN OVC005 M02/M04 A3002 RMK
NS8 /S01/ SLP173=
METAR CYFT 301300Z 30011G18KT 2 1/2SM -SN OVC005 M02/M04 A3001 RMK
NS8 SLP167=

CYFT - No TAF is issued for this station

Your time UTC time
Weather data provided by Environment Canada and NAV CANADA